Time;durP1;ratioP1;P1;durP2;ratioP2;P2;SDS_P1;SDS_P2;PMS_P1;PMS_P2;Temp;Humidity;BMP_temperature;BMP_pressure;BME280_temperature;BME280_humidity;BME280_pressure;Samples;Min_cycle;Max_cycle;Signal;HPM_P1;HPM_P2
2022/05/01 00:01:18;;;;;;;10.10;8.00;;;10.50;60.20;;;;;;4972947;28;20046;-73
2022/05/01 00:03:44;;;;;;;12.68;8.90;;;10.50;60.20;;;;;;4958178;28;20050;-74
2022/05/01 00:06:12;;;;;;;8.98;7.93;;;10.50;60.40;;;;;;4959574;28;20047;-73
2022/05/01 00:08:42;;;;;;;12.43;8.23;;;10.50;60.30;;;;;;4962371;28;20055;-75
2022/05/01 00:11:08;;;;;;;10.85;8.27;;;10.50;60.10;;;;;;4976406;28;20058;-73
2022/05/01 00:13:35;;;;;;;11.38;8.65;;;10.40;60.10;;;;;;4974679;28;20367;-74
2022/05/01 00:16:01;;;;;;;9.98;7.90;;;10.50;60.20;;;;;;4975565;28;20039;-73
2022/05/01 00:18:27;;;;;;;9.15;8.02;;;10.40;60.10;;;;;;4974503;28;20050;-75
2022/05/01 00:20:53;;;;;;;9.93;8.05;;;10.50;60.10;;;;;;4973932;28;20045;-75
2022/05/01 00:23:19;;;;;;;10.55;8.60;;;10.40;60.10;;;;;;4963791;28;20043;-74
2022/05/01 00:25:45;;;;;;;10.02;8.07;;;10.50;60.10;;;;;;4969762;28;20098;-74
2022/05/01 00:28:14;;;;;;;10.07;8.25;;;10.40;60.50;;;;;;4958232;28;20158;-74
2022/05/01 00:30:41;;;;;;;9.40;7.47;;;10.40;60.60;;;;;;4976451;28;20057;-74
2022/05/01 00:38:37;;;;;;;9.05;7.82;;;10.40;60.20;;;;;;4963787;28;20047;-74
2022/05/01 00:41:07;;;;;;;8.40;7.25;;;10.40;60.40;;;;;;4956587;28;20058;-74
2022/05/01 00:43:33;;;;;;;8.85;7.93;;;10.40;60.50;;;;;;4959253;28;20487;-74
2022/05/01 00:45:59;;;;;;;12.27;9.05;;;10.40;60.60;;;;;;4988938;28;20051;-74
2022/05/01 00:48:25;;;;;;;10.77;7.15;;;10.40;60.60;;;;;;4971409;28;20061;-74
2022/05/01 00:50:52;;;;;;;10.35;7.22;;;10.30;60.80;;;;;;4987394;28;20122;-75
2022/05/01 00:53:19;;;;;;;8.27;6.45;;;10.30;60.90;;;;;;4959035;28;20487;-74
2022/05/01 00:55:46;;;;;;;10.20;7.43;;;10.30;60.80;;;;;;4958657;28;20047;-75
2022/05/01 00:58:12;;;;;;;10.07;7.82;;;10.30;61.20;;;;;;4970935;28;20042;-73
2022/05/01 01:00:38;;;;;;;10.75;8.10;;;10.30;60.90;;;;;;4976309;28;20129;-73
2022/05/01 01:03:04;;;;;;;9.52;7.38;;;10.30;60.90;;;;;;4974357;28;20122;-73
2022/05/01 01:05:29;;;;;;;8.43;6.95;;;10.30;60.90;;;;;;4959066;28;20079;-74
2022/05/01 01:07:58;;;;;;;9.15;6.70;;;10.30;60.90;;;;;;4986416;28;20086;-74
2022/05/01 01:10:26;;;;;;;8.32;6.72;;;10.20;60.90;;;;;;4956277;28;20050;-73
2022/05/01 01:12:54;;;;;;;8.52;7.35;;;10.20;60.90;;;;;;4957796;28;20043;-73
2022/05/01 01:15:22;;;;;;;9.90;7.20;;;10.20;61.30;;;;;;4958455;28;20153;-73
2022/05/01 01:17:52;;;;;;;7.50;6.55;;;10.20;61.30;;;;;;4962242;28;20049;-74
2022/05/01 01:20:40;;;;;;;7.72;6.82;;;10.20;60.80;;;;;;4972995;28;20386;-73
2022/05/01 01:23:06;;;;;;;9.05;6.90;;;10.20;60.80;;;;;;4972662;28;20096;-73
2022/05/01 01:25:32;;;;;;;7.78;6.57;;;10.20;60.80;;;;;;4963980;28;20526;-73
2022/05/01 01:28:05;;;;;;;8.90;7.13;;;10.20;60.80;;;;;;4967936;28;20038;-73
2022/05/01 01:33:20;;;;;;;7.68;6.60;;;10.20;60.70;;;;;;4957554;28;20054;-73
2022/05/01 01:35:49;;;;;;;8.13;6.50;;;10.20;60.70;;;;;;4972374;28;20055;-74
2022/05/01 01:38:16;;;;;;;7.47;6.50;;;10.20;60.70;;;;;;4960265;28;20046;-73
2022/05/01 01:40:48;;;;;;;9.95;7.25;;;10.10;60.60;;;;;;4966272;28;20047;-74
2022/05/01 01:43:19;;;;;;;7.47;6.65;;;10.20;60.70;;;;;;4959666;28;20050;-74
2022/05/01 01:45:46;;;;;;;8.07;7.10;;;10.20;60.60;;;;;;4960460;28;20069;-73
2022/05/01 01:48:14;;;;;;;9.30;7.05;;;10.10;60.60;;;;;;4957954;28;20455;-74
2022/05/01 01:50:40;;;;;;;7.78;6.03;;;10.20;61.00;;;;;;4973280;28;20042;-73
2022/05/01 01:53:08;;;;;;;7.00;6.18;;;10.10;60.50;;;;;;4969516;28;20046;-74
2022/05/01 01:55:38;;;;;;;8.10;6.57;;;10.10;60.50;;;;;;4970841;28;20035;-75
2022/05/01 01:58:05;;;;;;;9.63;6.45;;;10.10;60.40;;;;;;4958909;28;20054;-74
2022/05/01 02:00:32;;;;;;;7.57;6.45;;;10.10;60.40;;;;;;4962324;28;20407;-73
2022/05/01 02:02:58;;;;;;;7.75;5.93;;;10.10;60.40;;;;;;4973406;28;20045;-73
2022/05/01 02:05:26;;;;;;;7.57;6.78;;;10.10;60.30;;;;;;4974579;28;20045;-73
2022/05/01 02:07:52;;;;;;;9.65;7.07;;;10.10;60.30;;;;;;4971843;28;20062;-73
2022/05/01 02:10:18;;;;;;;8.82;6.22;;;10.10;60.30;;;;;;4957697;28;20078;-74
2022/05/01 02:12:44;;;;;;;8.90;7.78;;;10.00;60.20;;;;;;4969577;28;20058;-74
2022/05/01 02:15:09;;;;;;;7.07;5.78;;;10.00;60.20;;;;;;4970927;28;20055;-74
2022/05/01 02:17:35;;;;;;;7.90;6.00;;;10.00;60.10;;;;;;4956771;28;20051;-74
2022/05/01 02:20:01;;;;;;;8.25;7.05;;;10.00;60.10;;;;;;4983443;28;20398;-74
2022/05/01 02:22:27;;;;;;;7.70;6.72;;;10.00;60.10;;;;;;4973330;28;20050;-75
2022/05/01 02:24:54;;;;;;;7.85;7.05;;;10.00;60.10;;;;;;4971060;28;20050;-74
2022/05/01 02:27:20;;;;;;;9.10;7.03;;;10.00;60.10;;;;;;4967521;28;20390;-74
2022/05/01 02:29:46;;;;;;;9.25;7.10;;;9.90;60.00;;;;;;4964708;28;20039;-74
2022/05/01 02:32:13;;;;;;;7.50;6.15;;;9.90;60.10;;;;;;4968199;28;20541;-74
2022/05/01 02:34:39;;;;;;;8.90;7.15;;;9.90;60.10;;;;;;4964240;28;20474;-74
2022/05/01 02:37:06;;;;;;;8.00;7.18;;;9.90;60.10;;;;;;4970980;28;20043;-74
2022/05/01 02:39:33;;;;;;;7.00;6.30;;;9.90;60.10;;;;;;4974324;28;20042;-74
2022/05/01 02:41:58;;;;;;;7.20;6.25;;;9.80;60.00;;;;;;4971384;28;20499;-74
2022/05/01 02:44:24;;;;;;;7.47;6.00;;;9.80;60.00;;;;;;4971622;28;20078;-74
2022/05/01 02:46:50;;;;;;;9.25;6.65;;;9.70;60.00;;;;;;4959266;28;20046;-74
2022/05/01 02:49:15;;;;;;;8.27;6.70;;;9.80;60.00;;;;;;4957198;28;20054;-75
2022/05/01 02:51:42;;;;;;;7.53;6.10;;;9.70;60.00;;;;;;4971367;28;20047;-74
2022/05/01 02:54:08;;;;;;;7.45;6.45;;;9.70;60.00;;;;;;4971373;28;20050;-74
2022/05/01 02:56:34;;;;;;;8.93;6.95;;;9.70;60.00;;;;;;4974178;28;20046;-74
2022/05/01 02:59:00;;;;;;;7.80;7.00;;;9.70;60.00;;;;;;4972683;28;20481;-74
2022/05/01 03:01:27;;;;;;;8.40;7.18;;;9.70;59.90;;;;;;4959026;28;20093;-74
2022/05/01 03:03:53;;;;;;;9.18;6.97;;;9.60;59.90;;;;;;4973247;28;20056;-74
2022/05/01 03:06:19;;;;;;;8.70;7.10;;;9.70;59.90;;;;;;4968372;28;20040;-74
2022/05/01 03:08:44;;;;;;;7.85;6.63;;;9.60;59.90;;;;;;4986053;28;20394;-74
2022/05/01 03:11:10;;;;;;;10.90;6.40;;;9.50;59.90;;;;;;4955280;28;20051;-73
2022/05/01 03:13:36;;;;;;;8.32;7.20;;;9.50;59.80;;;;;;4956180;28;20097;-74
2022/05/01 03:16:02;;;;;;;8.90;7.32;;;9.50;59.70;;;;;;4969373;28;20491;-74
2022/05/01 03:23:56;;;;;;;8.85;6.97;;;9.30;59.70;;;;;;4956419;28;20047;-74
2022/05/01 03:26:22;;;;;;;9.48;7.65;;;9.30;59.80;;;;;;4956175;28;20047;-74
2022/05/01 03:28:48;;;;;;;8.43;7.38;;;9.30;59.90;;;;;;4959626;28;20066;-74
2022/05/01 03:31:15;;;;;;;8.50;6.55;;;9.20;59.90;;;;;;4958469;28;20487;-74
2022/05/01 03:33:42;;;;;;;7.50;6.30;;;9.20;59.80;;;;;;4957256;28;20032;-74
2022/05/01 03:36:09;;;;;;;9.32;6.82;;;9.10;59.80;;;;;;4957298;28;20402;-74
2022/05/01 03:38:39;;;;;;;8.93;7.57;;;9.10;59.90;;;;;;4964131;28;20106;-74
2022/05/01 03:41:08;;;;;;;7.93;7.00;;;9.10;59.90;;;;;;4968647;28;20043;-75
2022/05/01 03:43:35;;;;;;;7.97;7.18;;;9.00;60.00;;;;;;4968615;28;20047;-73
2022/05/01 03:46:02;;;;;;;8.27;6.85;;;9.00;60.10;;;;;;4960804;28;20043;-73
2022/05/01 03:48:28;;;;;;;7.63;6.78;;;8.90;60.10;;;;;;4959551;28;20055;-73
2022/05/01 03:50:54;;;;;;;10.45;8.82;;;8.90;60.20;;;;;;4963769;28;20059;-73
2022/05/01 03:53:21;;;;;;;8.15;6.85;;;8.90;60.20;;;;;;4956798;28;20102;-74
2022/05/01 03:55:47;;;;;;;10.65;7.78;;;8.90;60.30;;;;;;4970823;28;20046;-74
2022/05/01 03:58:13;;;;;;;9.27;6.78;;;8.80;60.20;;;;;;4968943;28;20051;-74
2022/05/01 04:00:39;;;;;;;9.02;7.18;;;8.80;60.30;;;;;;4962337;28;20407;-74
2022/05/01 04:03:05;;;;;;;8.38;7.20;;;8.80;60.40;;;;;;4957888;28;20047;-74
2022/05/01 04:05:33;;;;;;;9.73;7.93;;;8.70;60.40;;;;;;4960812;28;20423;-74
2022/05/01 04:07:59;;;;;;;9.65;7.90;;;8.70;60.40;;;;;;4992170;28;20051;-74
2022/05/01 04:10:25;;;;;;;8.90;7.38;;;8.70;60.50;;;;;;4967151;28;20043;-74
2022/05/01 04:12:50;;;;;;;9.43;8.40;;;8.70;60.50;;;;;;4961458;28;20138;-74
2022/05/01 04:15:16;;;;;;;10.43;8.95;;;8.70;60.40;;;;;;4989942;28;20391;-74
2022/05/01 04:17:43;;;;;;;8.95;7.72;;;8.60;60.30;;;;;;4969143;28;20069;-73
2022/05/01 04:20:14;;;;;;;8.07;7.18;;;8.60;60.30;;;;;;4975447;28;20043;-73
2022/05/01 04:22:40;;;;;;;9.02;7.80;;;8.60;60.40;;;;;;4959619;28;20074;-73
2022/05/01 04:25:14;;;;;;;8.77;7.47;;;8.60;60.50;;;;;;4969876;28;20474;-73
2022/05/01 04:27:40;;;;;;;9.77;8.00;;;8.50;60.50;;;;;;4966914;28;20047;-73
2022/05/01 04:30:06;;;;;;;10.45;8.63;;;8.50;60.50;;;;;;4957867;28;20399;-73
2022/05/01 04:32:32;;;;;;;9.10;7.93;;;8.50;60.60;;;;;;4991832;28;20422;-74
2022/05/01 04:34:57;;;;;;;9.38;7.75;;;8.50;60.60;;;;;;4970928;28;20051;-73
2022/05/01 04:37:23;;;;;;;11.25;8.25;;;8.50;60.60;;;;;;4958449;28;20047;-73
2022/05/01 04:39:49;;;;;;;7.90;7.10;;;8.40;60.50;;;;;;4957823;28;20047;-74
2022/05/01 04:42:15;;;;;;;7.90;7.10;;;8.50;60.50;;;;;;4966991;28;20042;-73
2022/05/01 04:44:43;;;;;;;8.20;7.35;;;8.40;60.40;;;;;;4975094;28;20082;-73
2022/05/01 04:47:08;;;;;;;10.57;7.03;;;8.50;60.50;;;;;;4972841;28;20046;-73
2022/05/01 04:49:35;;;;;;;7.82;6.70;;;8.40;60.30;;;;;;4976464;28;20062;-73
2022/05/01 04:52:01;;;;;;;8.82;7.57;;;8.40;60.20;;;;;;4965235;28;20375;-73
2022/05/01 04:54:27;;;;;;;9.07;7.57;;;8.50;60.30;;;;;;4968470;28;20404;-73
2022/05/01 04:59:48;;;;;;;9.65;7.13;;;8.40;60.30;;;;;;4954387;29;20151;-73
2022/05/01 05:02:14;;;;;;;8.25;7.45;;;8.30;60.20;;;;;;4932302;29;20579;-73
2022/05/01 05:04:40;;;;;;;10.25;7.78;;;8.30;60.40;;;;;;4948185;29;20066;-74
2022/05/01 05:07:06;;;;;;;9.70;7.88;;;8.40;60.60;;;;;;4946611;29;20040;-73
2022/05/01 05:12:16;;;;;;;8.38;7.57;;;8.60;61.00;;;;;;4946939;29;20125;-73
2022/05/01 05:14:42;;;;;;;8.63;7.72;;;8.80;61.00;;;;;;4927859;29;20175;-73
2022/05/01 05:17:09;;;;;;;10.30;9.10;;;8.90;60.80;;;;;;4951183;29;20458;-74
2022/05/01 05:19:36;;;;;;;10.55;8.98;;;9.10;60.80;;;;;;4939946;29;20616;-73
2022/05/01 05:22:03;;;;;;;11.30;10.15;;;9.20;60.70;;;;;;4953810;29;20490;-73
2022/05/01 05:24:30;;;;;;;14.35;11.23;;;9.20;60.60;;;;;;4951692;29;20114;-73
2022/05/01 05:26:57;;;;;;;11.75;9.70;;;9.30;60.70;;;;;;4953421;29;20039;-73
2022/05/01 05:29:22;;;;;;;10.27;9.18;;;9.40;60.70;;;;;;4940215;29;20055;-73
2022/05/01 05:31:48;;;;;;;11.95;10.35;;;9.50;60.50;;;;;;4937453;29;20046;-74
2022/05/01 05:34:13;;;;;;;11.00;9.90;;;9.60;60.60;;;;;;4935349;29;20147;-73
2022/05/01 05:36:39;;;;;;;11.57;9.68;;;9.70;60.70;;;;;;4977226;28;20051;-73
2022/05/01 05:39:05;;;;;;;14.90;10.05;;;9.80;60.60;;;;;;4972844;28;20482;-73
2022/05/01 05:41:30;;;;;;;13.52;9.98;;;10.00;60.50;;;;;;4972681;28;20041;-73
2022/05/01 05:43:56;;;;;;;10.85;9.25;;;10.20;60.80;;;;;;4968035;28;20474;-74
2022/05/01 05:46:22;;;;;;;11.82;9.45;;;10.30;60.00;;;;;;4970745;28;20470;-74
2022/05/01 05:48:47;;;;;;;11.07;9.85;;;10.50;59.70;;;;;;4958066;28;20450;-73
2022/05/01 05:51:13;;;;;;;10.73;9.38;;;10.60;59.40;;;;;;4969290;28;20039;-74
2022/05/01 05:53:38;;;;;;;12.30;9.43;;;10.70;59.20;;;;;;4972700;28;20081;-73
2022/05/01 05:56:04;;;;;;;11.27;9.43;;;10.80;59.00;;;;;;4974344;28;20086;-74
2022/05/01 05:58:30;;;;;;;11.75;10.40;;;10.70;58.80;;;;;;4959044;28;20414;-74
2022/05/01 06:00:55;;;;;;;11.20;9.52;;;10.70;58.80;;;;;;4970619;28;20043;-74
2022/05/01 06:03:21;;;;;;;10.60;9.35;;;10.70;58.70;;;;;;4969423;28;20094;-74
2022/05/01 06:05:47;;;;;;;9.73;8.73;;;10.80;58.70;;;;;;4960768;28;20575;-74
2022/05/01 06:08:13;;;;;;;10.70;9.45;;;10.80;58.80;;;;;;4973273;28;20048;-73
2022/05/01 06:10:39;;;;;;;10.70;9.60;;;10.80;58.70;;;;;;4974688;28;20047;-74
2022/05/01 06:13:05;;;;;;;10.98;9.68;;;10.80;58.70;;;;;;4973141;28;20047;-74
2022/05/01 06:15:31;;;;;;;12.45;9.82;;;10.80;59.00;;;;;;4960793;28;20035;-74
2022/05/01 06:17:56;;;;;;;12.60;9.85;;;10.90;59.20;;;;;;4962872;28;20050;-74
2022/05/01 06:20:22;;;;;;;10.90;9.07;;;11.00;59.80;;;;;;4986081;28;20047;-74
2022/05/01 06:22:51;;;;;;;11.65;10.10;;;11.20;59.60;;;;;;4965619;28;20387;-74
2022/05/01 06:25:18;;;;;;;10.70;9.60;;;11.40;59.10;;;;;;4967569;28;20038;-74
2022/05/01 06:27:43;;;;;;;11.35;9.70;;;11.60;59.00;;;;;;4969297;28;20055;-74
2022/05/01 06:30:12;;;;;;;14.48;10.32;;;11.90;59.10;;;;;;4962515;28;20035;-73
2022/05/01 06:32:42;;;;;;;12.02;9.60;;;12.20;58.80;;;;;;4963778;28;20402;-74
2022/05/01 06:35:09;;;;;;;11.30;9.48;;;12.60;58.80;;;;;;4967852;28;20051;-74
2022/05/01 06:37:36;;;;;;;9.13;8.23;;;13.00;58.40;;;;;;4973023;28;20066;-74
2022/05/01 06:40:03;;;;;;;9.98;8.20;;;13.40;58.00;;;;;;4957712;28;20086;-75
2022/05/01 06:42:30;;;;;;;9.30;8.32;;;13.80;57.20;;;;;;4986810;28;20106;-75
2022/05/01 06:44:56;;;;;;;8.50;7.65;;;14.10;56.40;;;;;;4965876;28;20051;-73
2022/05/01 06:47:21;;;;;;;8.73;7.65;;;14.40;56.00;;;;;;4962230;28;21472;-74
2022/05/01 06:49:47;;;;;;;8.75;7.43;;;14.80;55.50;;;;;;4968418;28;20434;-73
2022/05/01 06:52:13;;;;;;;9.38;6.93;;;15.20;55.00;;;;;;4961842;28;20062;-73
2022/05/01 06:54:39;;;;;;;8.13;7.30;;;15.50;54.20;;;;;;4965860;28;20082;-73
2022/05/01 06:57:05;;;;;;;7.78;6.40;;;15.90;53.20;;;;;;4971666;28;20075;-74
2022/05/01 06:59:31;;;;;;;7.03;5.53;;;16.10;52.10;;;;;;4970092;28;20141;-73
2022/05/01 07:01:56;;;;;;;7.25;6.13;;;16.40;51.40;;;;;;4974490;28;20545;-74
2022/05/01 07:04:22;;;;;;;7.35;6.15;;;16.60;50.60;;;;;;4964772;28;20046;-74
2022/05/01 07:06:47;;;;;;;7.32;6.28;;;16.70;50.30;;;;;;4985640;28;20051;-75
2022/05/01 07:09:13;;;;;;;6.80;5.57;;;16.80;49.80;;;;;;4956522;28;20134;-74
2022/05/01 07:11:39;;;;;;;7.13;6.18;;;16.90;50.00;;;;;;4987664;28;20149;-75
2022/05/01 07:14:04;;;;;;;7.80;6.78;;;16.90;48.90;;;;;;4966519;28;20546;-75
2022/05/01 07:16:30;;;;;;;7.68;6.25;;;16.70;48.70;;;;;;4956354;28;20039;-75
2022/05/01 07:18:55;;;;;;;8.45;6.22;;;16.50;48.40;;;;;;4969565;28;20134;-73
2022/05/01 07:21:21;;;;;;;5.95;4.50;;;16.40;48.70;;;;;;4957733;28;20038;-74
2022/05/01 07:23:47;;;;;;;6.93;5.03;;;16.40;48.00;;;;;;4956187;28;20070;-74
2022/05/01 07:26:12;;;;;;;6.88;4.57;;;16.40;47.80;;;;;;4955287;28;20051;-74
2022/05/01 07:28:39;;;;;;;6.55;4.65;;;16.40;47.80;;;;;;4965970;28;20478;-74
2022/05/01 07:31:05;;;;;;;5.80;5.10;;;16.40;47.50;;;;;;4965070;28;20057;-73
2022/05/01 07:33:31;;;;;;;7.00;5.72;;;16.40;46.90;;;;;;4960064;28;20130;-74
2022/05/01 07:35:58;;;;;;;6.53;5.53;;;16.40;47.40;;;;;;4974937;28;20054;-74
2022/05/01 07:38:24;;;;;;;7.35;5.82;;;16.40;47.70;;;;;;4972079;28;20513;-75
2022/05/01 07:40:49;;;;;;;10.25;5.97;;;16.30;47.70;;;;;;4970577;28;20046;-74
2022/05/01 07:43:15;;;;;;;8.88;6.18;;;16.30;47.90;;;;;;4971991;28;20050;-74
2022/05/01 07:45:42;;;;;;;7.00;5.20;;;16.20;47.80;;;;;;4976111;28;20035;-74
2022/05/01 07:48:08;;;;;;;9.93;5.53;;;16.10;47.90;;;;;;4964772;28;20403;-72
2022/05/01 07:50:34;;;;;;;7.72;5.32;;;16.10;48.50;;;;;;4974241;28;20206;-73
2022/05/01 07:52:59;;;;;;;7.50;5.60;;;16.20;48.80;;;;;;4976443;28;20046;-76
2022/05/01 07:55:25;;;;;;;5.85;5.00;;;16.40;48.70;;;;;;4976014;28;20050;-74
2022/05/01 07:57:51;;;;;;;5.45;3.75;;;16.50;48.00;;;;;;4966919;28;20049;-74
2022/05/01 08:00:16;;;;;;;5.88;3.95;;;16.60;47.00;;;;;;4966023;28;20043;-73
2022/05/01 08:05:28;;;;;;;5.60;3.47;;;16.60;45.50;;;;;;4964005;28;20487;-74
2022/05/01 08:07:54;;;;;;;7.57;4.20;;;16.60;45.40;;;;;;4971645;28;20047;-74
2022/05/01 08:10:20;;;;;;;4.68;4.13;;;16.60;45.20;;;;;;4963278;28;20047;-73
2022/05/01 08:12:47;;;;;;;5.25;3.92;;;16.50;44.90;;;;;;4970451;28;20035;-73
2022/05/01 08:15:17;;;;;;;6.13;3.92;;;16.50;45.30;;;;;;4991746;28;20089;-72
2022/05/01 08:17:43;;;;;;;4.38;3.72;;;16.50;45.90;;;;;;4970896;28;20081;-73
2022/05/01 08:23:04;;;;;;;5.65;4.40;;;16.90;45.50;;;;;;4988398;28;20048;-79
2022/05/01 08:25:30;;;;;;;4.95;3.45;;;17.00;44.90;;;;;;4968866;28;20101;-79
2022/05/01 08:27:55;;;;;;;5.95;4.45;;;17.00;44.60;;;;;;4970076;28;20031;-79
2022/05/01 08:30:21;;;;;;;5.05;3.33;;;17.10;44.80;;;;;;4971889;28;20055;-79
2022/05/01 08:32:47;;;;;;;5.30;3.38;;;17.10;44.80;;;;;;4964483;28;20045;-79
2022/05/01 08:35:13;;;;;;;5.07;3.42;;;17.20;44.70;;;;;;4980158;28;20466;-79
2022/05/01 08:37:40;;;;;;;4.18;3.53;;;17.30;44.80;;;;;;4965511;28;20043;-79
2022/05/01 08:40:07;;;;;;;5.50;4.13;;;17.40;43.80;;;;;;4973535;28;20493;-80
2022/05/01 08:42:35;;;;;;;6.55;4.15;;;17.40;44.00;;;;;;4968033;28;20047;-81
2022/05/01 08:45:05;;;;;;;6.38;4.15;;;17.40;43.30;;;;;;4969536;28;20105;-81
2022/05/01 08:47:40;;;;;;;5.53;4.30;;;17.40;43.50;;;;;;4974122;28;20041;-80
2022/05/01 08:50:09;;;;;;;5.35;3.88;;;17.50;44.60;;;;;;4963521;28;20063;-81
2022/05/01 08:52:37;;;;;;;4.70;3.63;;;17.60;44.20;;;;;;4973025;28;20105;-81
2022/05/01 08:55:05;;;;;;;6.60;3.92;;;17.70;43.40;;;;;;4961776;28;20122;-81
2022/05/01 08:57:33;;;;;;;5.03;4.00;;;17.60;43.30;;;;;;4971236;28;20053;-81
2022/05/01 08:59:59;;;;;;;6.55;4.38;;;17.60;43.20;;;;;;4976219;28;20486;-81
2022/05/01 09:02:25;;;;;;;5.22;4.18;;;17.60;42.80;;;;;;4971336;28;20049;-82
2022/05/01 09:04:51;;;;;;;6.15;4.20;;;17.60;42.60;;;;;;4966968;28;20054;-81
2022/05/01 09:07:16;;;;;;;5.38;4.00;;;17.60;42.70;;;;;;4962229;28;20039;-81
2022/05/01 09:09:42;;;;;;;5.65;4.20;;;17.60;43.20;;;;;;4958430;28;20039;-81
2022/05/01 09:14:54;;;;;;;5.35;3.60;;;17.50;42.20;;;;;;4987619;28;20046;-81
2022/05/01 09:17:21;;;;;;;5.95;3.72;;;17.40;42.50;;;;;;4976031;28;20046;-81
2022/05/01 09:19:49;;;;;;;5.18;3.40;;;17.40;42.90;;;;;;4963743;28;20075;-82
2022/05/01 09:22:16;;;;;;;5.93;4.07;;;17.30;42.80;;;;;;4962528;28;20043;-78
2022/05/01 09:24:42;;;;;;;5.65;3.42;;;17.40;43.10;;;;;;4975087;28;20478;-78
2022/05/01 09:27:32;;;;;;;5.28;3.55;;;17.40;43.40;;;;;;4968177;28;20039;-77
2022/05/01 09:30:22;;;;;;;5.30;3.50;;;17.50;42.30;;;;;;4976397;28;20422;-78
2022/05/01 09:32:49;;;;;;;8.07;3.72;;;17.40;42.10;;;;;;4967329;28;20112;-78
2022/05/01 09:35:32;;;;;;;4.35;3.30;;;17.30;42.00;;;;;;4960195;28;20113;-77
2022/05/01 09:38:16;;;;;;;5.38;3.63;;;17.30;41.90;;;;;;4962687;28;20047;-78
2022/05/01 09:40:54;;;;;;;3.85;3.08;;;17.10;41.60;;;;;;4956697;28;20533;-82
2022/05/01 09:43:36;;;;;;;6.65;3.80;;;16.90;42.00;;;;;;4984423;28;20047;-82
2022/05/01 09:46:20;;;;;;;6.47;4.43;;;16.80;42.00;;;;;;4963553;28;20490;-81
2022/05/01 09:49:01;;;;;;;4.95;3.90;;;16.50;41.80;;;;;;4970810;28;20063;-80
2022/05/01 09:51:28;;;;;;;6.60;4.03;;;16.10;42.60;;;;;;4962199;28;20051;-81
2022/05/01 09:53:55;;;;;;;5.45;3.97;;;15.80;42.80;;;;;;4968633;28;20058;-80
2022/05/01 09:56:20;;;;;;;5.03;3.83;;;15.60;43.30;;;;;;4972000;28;20043;-80
2022/05/01 09:58:46;;;;;;;4.75;3.80;;;15.50;43.50;;;;;;4962254;28;20050;-80
2022/05/01 10:01:14;;;;;;;6.97;3.97;;;15.40;43.50;;;;;;4968910;28;20047;-79
2022/05/01 10:03:47;;;;;;;6.78;3.90;;;15.40;43.70;;;;;;4962659;28;20054;-80
2022/05/01 10:06:15;;;;;;;4.50;3.33;;;15.30;44.30;;;;;;4988164;28;20050;-80
2022/05/01 10:08:43;;;;;;;6.53;4.53;;;15.30;44.70;;;;;;4969036;28;20494;-80
2022/05/01 10:11:14;;;;;;;5.68;3.60;;;15.30;44.80;;;;;;4972597;28;20047;-80
2022/05/01 10:13:40;;;;;;;7.38;4.18;;;15.20;45.00;;;;;;4966791;28;20050;-79
2022/05/01 10:16:09;;;;;;;4.95;3.72;;;15.20;45.20;;;;;;4957143;28;20534;-80
2022/05/01 10:18:36;;;;;;;6.00;4.00;;;15.20;45.10;;;;;;4972133;28;20093;-79
2022/05/01 10:21:03;;;;;;;6.13;4.22;;;15.30;45.70;;;;;;4956025;28;20087;-80
2022/05/01 10:23:29;;;;;;;6.85;4.70;;;15.30;46.00;;;;;;4955965;28;20081;-80
2022/05/01 10:26:26;;;;;;;6.43;4.60;;;15.30;46.00;;;;;;5131533;27;20780;-81
2022/05/01 10:29:37;;;;;;;7.22;5.05;;;15.30;45.60;;;;;;5113374;28;20134;-80
2022/05/01 10:32:36;;;;;;;4.90;3.92;;;15.30;46.00;;;;;;5028191;28;20100;-80
2022/05/01 10:35:18;;;;;;;6.13;3.90;;;15.30;45.70;;;;;;4993790;28;20077;-81
2022/05/01 10:38:11;;;;;;;7.05;4.20;;;15.40;45.90;;;;;;5025146;28;20064;-81
2022/05/01 10:40:49;;;;;;;5.70;3.97;;;15.50;45.50;;;;;;5027963;28;20459;-81
2022/05/01 10:43:24;;;;;;;6.70;4.07;;;15.60;45.70;;;;;;5010072;28;20050;-80
2022/05/01 10:45:51;;;;;;;5.07;3.40;;;15.80;46.10;;;;;;5025073;28;20045;-80
2022/05/01 10:48:29;;;;;;;6.80;3.63;;;15.90;46.00;;;;;;5013899;28;20481;-80
2022/05/01 10:50:55;;;;;;;5.55;3.58;;;16.10;45.00;;;;;;5008477;28;20117;-82
2022/05/01 10:53:20;;;;;;;4.88;3.05;;;16.30;44.60;;;;;;5007588;28;20125;-82
2022/05/01 10:55:48;;;;;;;4.35;3.40;;;16.50;44.40;;;;;;5008135;28;20065;-81
2022/05/01 10:58:27;;;;;;;5.13;3.65;;;16.60;42.90;;;;;;5007733;28;20552;-80
2022/05/01 11:00:54;;;;;;;4.35;3.47;;;16.80;42.90;;;;;;5007575;28;20093;-80
2022/05/01 11:03:24;;;;;;;7.00;3.45;;;17.00;42.40;;;;;;5007009;28;20046;-84
2022/05/01 11:05:54;;;;;;;6.22;3.50;;;17.10;42.30;;;;;;4991345;28;20058;-86
2022/05/01 11:08:23;;;;;;;5.72;3.38;;;17.20;42.10;;;;;;5035836;28;20097;-86
2022/05/01 11:10:53;;;;;;;23.98;7.50;;;17.30;42.10;;;;;;5092583;28;20085;-85
2022/05/01 11:13:19;;;;;;;3.72;3.03;;;17.50;42.50;;;;;;5091699;28;20044;-84
2022/05/01 11:15:47;;;;;;;4.53;3.15;;;17.80;42.40;;;;;;5108807;28;20036;-82
2022/05/01 11:18:13;;;;;;;4.63;2.83;;;17.90;41.50;;;;;;5105172;28;20449;-86
2022/05/01 11:20:39;;;;;;;6.38;3.20;;;18.10;40.90;;;;;;5109787;28;20063;-79
2022/05/01 11:23:34;;;;;;;4.70;3.05;;;18.20;40.70;;;;;;5088482;28;20490;-80
2022/05/01 11:26:11;;;;;;;5.55;3.15;;;18.30;39.20;;;;;;5103744;28;20432;-79
2022/05/01 11:28:52;;;;;;;6.35;3.33;;;18.30;39.50;;;;;;5086450;28;20502;-78
2022/05/01 11:31:36;;;;;;;4.00;2.72;;;18.30;39.10;;;;;;5090899;28;20093;-82
2022/05/01 11:34:17;;;;;;;3.13;2.38;;;18.40;39.10;;;;;;5110009;28;20043;-83
2022/05/01 11:37:01;;;;;;;4.00;2.97;;;18.30;38.10;;;;;;5078184;28;20052;-80
2022/05/01 11:39:45;;;;;;;3.75;2.65;;;18.30;38.00;;;;;;5094508;28;20115;-80
2022/05/01 11:42:26;;;;;;;5.75;2.80;;;18.30;38.80;;;;;;5078185;28;20048;-80
2022/05/01 11:44:54;;;;;;;4.28;3.00;;;18.30;39.40;;;;;;5075428;28;20410;-80
2022/05/01 11:47:27;;;;;;;5.68;2.72;;;18.30;39.70;;;;;;5093975;28;20499;-82
2022/05/01 11:49:53;;;;;;;4.60;2.65;;;18.30;39.90;;;;;;5094417;28;20040;-81
2022/05/01 11:52:24;;;;;;;4.43;2.60;;;18.30;38.10;;;;;;5095573;28;20048;-81
2022/05/01 11:54:58;;;;;;;4.05;2.33;;;18.30;37.90;;;;;;5093877;28;20072;-81
2022/05/01 12:03:01;;;;;;;2.83;2.22;;;18.30;38.50;;;;;;5094019;28;20058;-81
2022/05/01 12:05:32;;;;;;;5.03;2.33;;;18.30;38.40;;;;;;5076863;28;20051;-81
2022/05/01 12:07:59;;;;;;;4.68;2.70;;;18.40;38.60;;;;;;5077459;28;20040;-82
2022/05/01 12:10:25;;;;;;;4.90;3.47;;;18.50;38.30;;;;;;5095037;28;20040;-82
2022/05/01 12:12:51;;;;;;;4.53;2.72;;;18.50;37.90;;;;;;5078043;28;20393;-81
2022/05/01 12:15:17;;;;;;;3.30;2.40;;;18.60;37.90;;;;;;5094382;28;20064;-81
2022/05/01 12:17:43;;;;;;;3.40;2.65;;;18.60;37.60;;;;;;5076913;28;20036;-81
2022/05/01 12:20:11;;;;;;;4.18;2.97;;;18.60;37.10;;;;;;5077002;28;20044;-81
2022/05/01 12:22:37;;;;;;;3.35;2.55;;;18.60;37.10;;;;;;5093756;28;20048;-81
2022/05/01 12:25:10;;;;;;;4.70;2.60;;;18.60;37.40;;;;;;5075985;28;20066;-82
2022/05/01 12:27:40;;;;;;;5.15;2.95;;;18.60;37.50;;;;;;5076574;28;20113;-82
2022/05/01 12:30:07;;;;;;;4.15;2.53;;;18.60;37.40;;;;;;5094637;28;20109;-82
2022/05/01 12:32:33;;;;;;;3.17;2.00;;;18.70;37.00;;;;;;5076507;28;20040;-82
2022/05/01 12:35:01;;;;;;;5.45;2.25;;;18.70;37.60;;;;;;5094420;28;20036;-83
2022/05/01 12:37:34;;;;;;;3.88;2.63;;;18.70;38.10;;;;;;5094434;28;20045;-83
2022/05/01 12:39:59;;;;;;;3.90;2.70;;;18.80;38.10;;;;;;5094279;28;20048;-83
2022/05/01 12:45:17;;;;;;;4.38;2.47;;;18.70;38.10;;;;;;5094144;28;20052;-82
2022/05/01 12:47:52;;;;;;;4.72;2.75;;;18.70;38.10;;;;;;5075344;28;20083;-82
2022/05/01 12:50:18;;;;;;;4.00;2.67;;;18.70;38.00;;;;;;5094002;28;20035;-82
2022/05/01 12:52:48;;;;;;;2.90;2.42;;;18.70;37.70;;;;;;5075383;28;20074;-82
2022/05/01 12:55:34;;;;;;;4.28;2.85;;;18.70;37.80;;;;;;5075603;28;20482;-82
2022/05/01 12:58:02;;;;;;;4.07;2.25;;;18.70;38.20;;;;;;5075745;28;20095;-82
2022/05/01 13:00:36;;;;;;;4.90;2.45;;;18.70;38.40;;;;;;5075500;28;20043;-80
2022/05/01 13:03:16;;;;;;;4.20;2.60;;;18.70;38.60;;;;;;5094092;28;20056;-79
2022/05/01 13:05:53;;;;;;;3.00;2.33;;;18.70;38.30;;;;;;5089955;28;20150;-80
2022/05/01 13:08:20;;;;;;;3.88;2.83;;;18.70;38.00;;;;;;5060393;28;20052;-80
2022/05/01 13:11:07;;;;;;;5.47;3.17;;;18.80;37.20;;;;;;5076405;28;20036;-79
2022/05/01 13:13:50;;;;;;;2.80;2.10;;;18.80;36.80;;;;;;5075678;28;20044;-80
2022/05/01 13:16:22;;;;;;;3.65;2.47;;;18.80;36.80;;;;;;5094309;28;20040;-80
2022/05/01 13:18:51;;;;;;;4.22;3.05;;;18.70;36.60;;;;;;5094567;28;20044;-79
2022/05/01 13:21:17;;;;;;;4.97;2.67;;;18.70;37.30;;;;;;5093475;28;20109;-80
2022/05/01 13:23:42;;;;;;;5.15;2.45;;;18.60;37.20;;;;;;5074774;28;20420;-78
2022/05/01 13:26:08;;;;;;;4.13;2.65;;;18.60;37.40;;;;;;5071093;28;20049;-80
2022/05/01 13:28:34;;;;;;;4.07;3.05;;;18.50;37.60;;;;;;5073275;28;20048;-80
2022/05/01 13:31:01;;;;;;;5.10;2.83;;;18.50;37.00;;;;;;5072175;28;20044;-80